createdAt,value
2019-05-18T00:02:12.184Z,12.70
2019-05-18T00:04:41.364Z,12.70
2019-05-18T00:07:10.645Z,12.70
2019-05-18T00:09:39.869Z,12.70
2019-05-18T00:12:09.143Z,12.70
2019-05-18T00:14:38.479Z,12.80
2019-05-18T00:17:17.318Z,12.80
2019-05-18T00:19:38.628Z,12.80
2019-05-18T00:22:07.825Z,12.80
2019-05-18T00:24:37.125Z,12.80
2019-05-18T00:27:06.299Z,12.70
2019-05-18T00:29:35.498Z,12.70
2019-05-18T00:32:04.807Z,12.70
2019-05-18T00:34:34.071Z,12.80
2019-05-18T00:37:03.392Z,12.70
2019-05-18T00:39:32.711Z,12.70
2019-05-18T00:42:01.976Z,12.80
2019-05-18T00:44:31.241Z,12.70
2019-05-18T00:47:00.448Z,12.70
2019-05-18T00:49:29.645Z,12.70
2019-05-18T00:51:58.917Z,12.70
2019-05-18T00:54:28.201Z,12.70
2019-05-18T00:56:57.488Z,12.70
2019-05-18T00:59:26.732Z,12.80
2019-05-18T01:01:55.956Z,12.80
2019-05-18T01:04:25.146Z,12.70
2019-05-18T01:06:54.505Z,12.70
2019-05-18T01:09:23.802Z,12.70
2019-05-18T01:11:53.079Z,12.70
2019-05-18T01:14:22.333Z,12.70
2019-05-18T01:16:51.547Z,12.70
2019-05-18T01:19:20.816Z,12.70
2019-05-18T01:21:50.150Z,12.70
2019-05-18T01:24:19.486Z,12.70
2019-05-18T01:26:48.700Z,12.70
2019-05-18T01:29:17.959Z,12.70
2019-05-18T01:31:47.309Z,12.70
2019-05-18T01:34:16.499Z,12.70
2019-05-18T01:36:45.757Z,12.70
2019-05-18T01:39:15.067Z,12.70
2019-05-18T01:41:44.268Z,12.70
2019-05-18T01:44:13.531Z,12.70
2019-05-18T01:46:42.829Z,12.70
2019-05-18T01:49:12.012Z,12.70
2019-05-18T01:51:41.351Z,12.80
2019-05-18T01:54:10.580Z,12.80
2019-05-18T01:56:39.856Z,12.70
2019-05-18T01:59:09.133Z,12.70
2019-05-18T02:01:38.429Z,12.70
2019-05-18T02:04:07.622Z,12.70
2019-05-18T02:06:36.959Z,12.70
2019-05-18T02:09:08.694Z,12.70
2019-05-18T02:11:38.062Z,12.70
2019-05-18T02:14:07.265Z,12.70
2019-05-18T02:16:36.631Z,12.70
2019-05-18T02:19:05.889Z,12.70
2019-05-18T02:21:35.130Z,12.80
2019-05-18T02:24:04.769Z,12.80
2019-05-18T02:26:34.361Z,12.70
2019-05-18T02:29:03.640Z,12.70
2019-05-18T02:31:32.935Z,12.70
2019-05-18T02:34:02.197Z,12.70
2019-05-18T02:36:31.462Z,12.70
2019-05-18T02:39:01.022Z,12.70
2019-05-18T02:41:30.305Z,12.70
2019-05-18T02:43:59.591Z,12.80
2019-05-18T02:46:29.077Z,12.80
2019-05-18T02:48:58.339Z,12.80
2019-05-18T02:51:27.624Z,12.90
2019-05-18T02:53:57.007Z,12.80
2019-05-18T02:56:26.350Z,12.80
2019-05-18T02:58:55.602Z,12.80
2019-05-18T03:01:24.905Z,12.80
2019-05-18T03:03:54.093Z,12.80
2019-05-18T03:06:23.348Z,12.80
2019-05-18T03:08:52.674Z,12.80
2019-05-18T03:11:21.856Z,12.80
2019-05-18T03:13:51.120Z,12.70
2019-05-18T03:16:20.617Z,12.70
2019-05-18T03:19:06.915Z,12.70
2019-05-18T03:21:20.776Z,12.70
2019-05-18T03:23:49.991Z,12.70
2019-05-18T03:26:19.177Z,12.70
2019-05-18T03:28:48.447Z,12.70
2019-05-18T03:31:17.748Z,12.70
2019-05-18T03:33:46.998Z,12.70
2019-05-18T03:36:16.321Z,12.80
2019-05-18T03:38:45.636Z,12.70
2019-05-18T03:41:14.893Z,12.70
2019-05-18T03:43:44.173Z,12.70
2019-05-18T03:46:13.395Z,12.70
2019-05-18T03:48:42.737Z,12.70
2019-05-18T03:51:12.011Z,12.70
2019-05-18T03:53:41.336Z,12.70
2019-05-18T03:56:10.533Z,12.70
2019-05-18T03:58:39.702Z,12.70
2019-05-18T04:01:09.099Z,12.70
2019-05-18T04:03:38.351Z,12.60
2019-05-18T04:06:07.614Z,12.60
2019-05-18T04:08:36.928Z,12.60
2019-05-18T04:11:06.191Z,12.70
2019-05-18T04:13:35.462Z,12.70
2019-05-18T04:16:04.753Z,12.70
2019-05-18T04:18:34.015Z,12.70
2019-05-18T04:21:07.901Z,12.80
2019-05-18T04:23:37.181Z,12.80
2019-05-18T04:26:06.474Z,12.80
2019-05-18T04:28:35.884Z,12.90
2019-05-18T04:31:05.173Z,12.90
2019-05-18T04:33:34.429Z,12.90
2019-05-18T04:36:03.914Z,12.90
2019-05-18T04:38:33.107Z,12.90
2019-05-18T04:41:02.430Z,12.90
2019-05-18T04:43:31.733Z,12.90
2019-05-18T04:46:03.489Z,12.80
2019-05-18T04:48:32.756Z,12.90
2019-05-18T04:51:01.986Z,12.90
2019-05-18T04:53:31.337Z,12.80
2019-05-18T04:56:00.696Z,12.80
2019-05-18T04:58:30.272Z,12.80
2019-05-18T05:00:59.470Z,12.80
2019-05-18T05:03:28.803Z,12.90
2019-05-18T05:05:58.016Z,12.90
2019-05-18T05:08:27.267Z,12.90
2019-05-18T05:10:56.504Z,12.80
2019-05-18T05:13:25.910Z,12.90
2019-05-18T05:15:55.870Z,12.90
2019-05-18T05:18:25.064Z,12.90
2019-05-18T05:20:54.316Z,13.00
2019-05-18T05:23:23.626Z,13.10
2019-05-18T05:25:52.875Z,13.10
2019-05-18T05:28:22.176Z,13.10
2019-05-18T05:30:51.360Z,13.20
2019-05-18T05:33:20.640Z,13.20
2019-05-18T05:35:49.950Z,13.30
2019-05-18T05:38:19.280Z,13.20
2019-05-18T05:40:48.644Z,13.20
2019-05-18T05:43:17.940Z,13.10
2019-05-18T05:45:47.281Z,13.10
2019-05-18T05:48:16.552Z,13.20
2019-05-18T05:50:45.890Z,13.10
2019-05-18T05:53:15.147Z,13.00
2019-05-18T05:55:44.620Z,13.10
2019-05-18T05:58:14.005Z,13.20
2019-05-18T06:00:43.279Z,13.10
2019-05-18T06:03:15.325Z,13.10
2019-05-18T06:05:46.866Z,13.10
2019-05-18T06:08:16.367Z,13.10
2019-05-18T06:10:45.616Z,13.10
2019-05-18T06:13:14.897Z,13.20
2019-05-18T06:15:44.095Z,13.10
2019-05-18T06:18:13.355Z,13.10
2019-05-18T06:20:50.887Z,13.20
2019-05-18T06:23:15.920Z,13.30
2019-05-18T06:25:45.104Z,13.30
2019-05-18T06:28:14.326Z,13.30
2019-05-18T06:30:43.599Z,13.40
2019-05-18T06:33:12.930Z,13.50
2019-05-18T06:35:42.151Z,13.50
2019-05-18T06:38:11.370Z,13.50
2019-05-18T06:40:40.554Z,13.50
2019-05-18T06:43:09.970Z,13.50
2019-05-18T06:45:39.220Z,13.60
2019-05-18T06:48:08.533Z,13.70
2019-05-18T06:50:37.835Z,13.60
2019-05-18T06:53:07.130Z,13.60
2019-05-18T06:55:37.246Z,13.70
2019-05-18T06:58:07.360Z,13.80
2019-05-18T07:00:36.568Z,13.80
2019-05-18T07:03:05.795Z,13.80
2019-05-18T07:05:35.164Z,13.90
2019-05-18T07:08:04.497Z,13.90
2019-05-18T07:10:33.831Z,13.80
2019-05-18T07:13:03.028Z,13.80
2019-05-18T07:15:32.351Z,13.90
2019-05-18T07:18:01.917Z,13.90
2019-05-18T07:20:31.211Z,13.90
2019-05-18T07:23:00.396Z,13.90
2019-05-18T07:25:29.586Z,13.90
2019-05-18T07:27:58.879Z,14.00
2019-05-18T07:30:28.266Z,14.10
2019-05-18T07:32:57.465Z,14.20
2019-05-18T07:35:26.761Z,14.30
2019-05-18T07:37:56.014Z,14.50
2019-05-18T07:40:25.387Z,14.60
2019-05-18T07:42:54.731Z,14.60
2019-05-18T07:45:23.988Z,14.50
2019-05-18T07:47:53.385Z,14.60
2019-05-18T07:50:23.047Z,14.60
2019-05-18T07:52:52.334Z,14.60
2019-05-18T07:55:21.521Z,14.50
2019-05-18T07:57:50.738Z,14.20
2019-05-18T08:00:20.115Z,14.40
2019-05-18T08:02:49.456Z,14.30
2019-05-18T08:05:18.855Z,14.40
2019-05-18T08:07:48.115Z,14.30
2019-05-18T08:10:22.732Z,14.30
2019-05-18T08:12:51.920Z,14.20
2019-05-18T08:15:21.338Z,14.30
2019-05-18T08:17:50.635Z,14.30
2019-05-18T08:20:19.926Z,14.30
2019-05-18T08:22:49.206Z,14.30
2019-05-18T08:25:18.431Z,14.30
2019-05-18T08:27:47.789Z,14.40
2019-05-18T08:30:17.145Z,14.60
2019-05-18T08:32:46.615Z,14.80
2019-05-18T08:35:15.868Z,14.90
2019-05-18T08:37:45.114Z,15.10
2019-05-18T08:40:14.430Z,15.20
2019-05-18T08:42:43.624Z,15.20
2019-05-18T08:45:13.597Z,15.30
2019-05-18T08:47:42.959Z,15.30
2019-05-18T08:50:12.496Z,15.50
2019-05-18T08:52:41.788Z,15.60
2019-05-18T08:55:11.385Z,15.80
2019-05-18T08:57:40.739Z,16.10
2019-05-18T09:00:11.464Z,16.10
2019-05-18T09:02:40.753Z,16.30
2019-05-18T09:05:10.436Z,16.40
2019-05-18T09:07:39.722Z,16.40
2019-05-18T09:10:09.365Z,16.40
2019-05-18T09:12:38.551Z,16.10
2019-05-18T09:15:08.157Z,16.00
2019-05-18T09:17:37.525Z,16.10
2019-05-18T09:20:07.189Z,16.20
2019-05-18T09:22:36.468Z,16.30
2019-05-18T09:25:06.257Z,16.30
2019-05-18T09:27:35.493Z,16.40
2019-05-18T09:30:05.613Z,16.30
2019-05-18T09:32:34.976Z,16.40
2019-05-18T09:35:04.771Z,16.40
2019-05-18T09:37:33.949Z,16.50
2019-05-18T09:40:03.253Z,16.80
2019-05-18T09:42:32.511Z,16.80
2019-05-18T09:45:01.815Z,16.90
2019-05-18T09:47:31.095Z,17.40
2019-05-18T09:50:00.277Z,17.90
2019-05-18T09:52:44.180Z,18.10
2019-05-18T09:55:00.577Z,18.30
2019-05-18T09:57:29.854Z,18.40
2019-05-18T09:59:59.187Z,18.30
2019-05-18T10:02:28.564Z,18.10
2019-05-18T10:04:57.994Z,18.00
2019-05-18T10:07:27.179Z,18.00
2019-05-18T10:09:56.461Z,18.10
2019-05-18T10:12:25.656Z,18.30
2019-05-18T10:14:55.095Z,18.20
2019-05-18T10:17:24.399Z,18.00
2019-05-18T10:19:53.688Z,17.80
2019-05-18T10:22:22.954Z,17.80
2019-05-18T10:24:52.282Z,17.90
2019-05-18T10:27:21.618Z,17.80
2019-05-18T10:29:50.988Z,18.00
2019-05-18T10:32:20.209Z,18.20
2019-05-18T10:34:49.398Z,18.40
2019-05-18T10:37:18.739Z,18.50
2019-05-18T10:39:47.947Z,18.50
2019-05-18T10:42:17.227Z,18.40
2019-05-18T10:44:46.555Z,18.40
2019-05-18T10:47:15.766Z,18.40
2019-05-18T10:49:45.096Z,18.50
2019-05-18T10:52:14.443Z,18.70
2019-05-18T10:54:43.658Z,18.70
2019-05-18T10:57:12.924Z,18.80
2019-05-18T10:59:42.100Z,18.90
2019-05-18T11:02:11.408Z,19.40
2019-05-18T11:04:40.668Z,19.60
2019-05-18T11:07:13.030Z,19.70
2019-05-18T11:09:42.281Z,20.00
2019-05-18T11:12:11.761Z,20.00
2019-05-18T11:14:41.034Z,19.90
2019-05-18T11:17:10.315Z,19.90
2019-05-18T11:19:39.517Z,19.70
2019-05-18T11:22:08.702Z,19.70
2019-05-18T11:24:38.050Z,19.80
2019-05-18T11:27:07.251Z,20.00
2019-05-18T11:29:36.441Z,20.20
2019-05-18T11:32:05.748Z,20.40
2019-05-18T11:34:35.018Z,20.80
2019-05-18T11:37:04.367Z,21.20
2019-05-18T11:39:33.670Z,21.20
2019-05-18T11:42:02.860Z,21.00
2019-05-18T11:44:32.181Z,21.20
2019-05-18T11:47:01.637Z,21.50
2019-05-18T11:49:30.911Z,21.30
2019-05-18T11:52:00.154Z,21.40
2019-05-18T11:54:29.815Z,21.60
2019-05-18T11:56:59.189Z,21.40
2019-05-18T11:59:28.527Z,21.30
2019-05-18T12:01:57.837Z,21.70
2019-05-18T12:04:27.097Z,22.10
2019-05-18T12:06:56.371Z,22.40
2019-05-18T12:09:25.775Z,22.50
2019-05-18T12:11:55.126Z,22.80
2019-05-18T12:14:24.402Z,22.90
2019-05-18T12:16:53.641Z,22.90
2019-05-18T12:19:22.904Z,22.60
2019-05-18T12:21:52.184Z,22.50
2019-05-18T12:24:21.472Z,22.50
2019-05-18T12:26:50.730Z,22.70
2019-05-18T12:29:19.960Z,22.80
2019-05-18T12:31:49.500Z,22.90
2019-05-18T12:34:18.837Z,23.20
2019-05-18T12:36:48.090Z,23.20
2019-05-18T12:39:17.442Z,23.40
2019-05-18T12:41:46.618Z,23.70
2019-05-18T12:44:15.808Z,23.70
2019-05-18T12:46:45.076Z,24.10
2019-05-18T12:49:14.325Z,24.30
2019-05-18T12:51:43.589Z,24.60
2019-05-18T12:54:12.876Z,24.80
2019-05-18T12:56:42.229Z,24.60
2019-05-18T12:59:11.672Z,24.70
2019-05-18T13:01:40.969Z,24.80
2019-05-18T13:04:10.251Z,24.90
2019-05-18T13:06:39.525Z,25.30
2019-05-18T13:09:09.400Z,25.10
2019-05-18T13:11:38.589Z,25.10
2019-05-18T13:14:07.931Z,24.90
2019-05-18T13:16:37.228Z,24.60
2019-05-18T13:19:06.412Z,24.50
2019-05-18T13:21:35.599Z,24.60
2019-05-18T13:24:04.824Z,25.00
2019-05-18T13:26:34.086Z,24.30
2019-05-18T13:29:03.418Z,24.50
2019-05-18T13:31:32.630Z,24.50
2019-05-18T13:34:02.003Z,24.30
2019-05-18T13:36:31.209Z,24.70
2019-05-18T13:39:00.491Z,25.00
2019-05-18T13:41:29.832Z,25.50
2019-05-18T13:43:59.167Z,25.90
2019-05-18T13:46:28.446Z,25.90
2019-05-18T13:48:57.705Z,25.30
2019-05-18T13:51:27.035Z,25.30
2019-05-18T13:53:56.257Z,26.30
2019-05-18T13:56:25.444Z,26.70
2019-05-18T13:58:54.719Z,26.70
2019-05-18T14:01:24.116Z,27.50
2019-05-18T14:03:53.396Z,27.60
2019-05-18T14:06:22.724Z,28.90
2019-05-18T14:08:51.953Z,29.00
2019-05-18T14:11:21.136Z,29.30
2019-05-18T14:13:50.384Z,30.00
2019-05-18T14:16:19.939Z,29.70
2019-05-18T14:18:49.139Z,29.60
2019-05-18T14:21:18.315Z,29.70
2019-05-18T14:23:47.535Z,29.20
2019-05-18T14:26:17.098Z,28.20
2019-05-18T14:28:46.268Z,27.40
2019-05-18T14:31:15.536Z,26.60
2019-05-18T14:33:44.807Z,25.80
2019-05-18T14:36:14.067Z,25.70
2019-05-18T14:38:43.364Z,25.70
2019-05-18T14:41:12.554Z,26.20
2019-05-18T14:43:41.820Z,27.20
2019-05-18T14:46:11.041Z,27.50
2019-05-18T14:48:40.280Z,27.40
2019-05-18T14:51:12.207Z,26.80
2019-05-18T14:53:41.498Z,26.20
2019-05-18T14:56:10.755Z,25.30
2019-05-18T14:58:39.947Z,25.20
2019-05-18T15:01:09.241Z,25.20
2019-05-18T15:03:38.424Z,25.40
2019-05-18T15:06:07.627Z,25.50
2019-05-18T15:08:37.102Z,25.20
2019-05-18T15:11:06.361Z,25.30
2019-05-18T15:13:35.613Z,25.40
2019-05-18T15:16:04.867Z,25.60
2019-05-18T15:18:34.131Z,25.80
2019-05-18T15:21:03.449Z,26.20
2019-05-18T15:23:32.809Z,26.60
2019-05-18T15:26:01.989Z,26.50
2019-05-18T15:28:31.352Z,26.10
2019-05-18T15:31:00.596Z,25.50
2019-05-18T15:33:29.898Z,25.10
2019-05-18T15:35:59.081Z,24.70
2019-05-18T15:38:28.300Z,24.00
2019-05-18T15:40:57.496Z,23.70
2019-05-18T15:43:26.774Z,23.20
2019-05-18T15:45:55.997Z,23.00
2019-05-18T15:48:25.447Z,22.30
2019-05-18T15:50:55.013Z,22.10
2019-05-18T15:53:24.289Z,22.00
2019-05-18T15:56:04.841Z,21.80
2019-05-18T15:58:24.377Z,21.60
2019-05-18T16:00:53.675Z,21.40
2019-05-18T16:03:22.866Z,21.40
2019-05-18T16:05:52.111Z,21.50
2019-05-18T16:08:21.518Z,21.40
2019-05-18T16:10:50.709Z,21.40
2019-05-18T16:13:19.893Z,21.40
2019-05-18T16:15:49.113Z,21.20
2019-05-18T16:18:18.366Z,21.20
2019-05-18T16:20:47.629Z,21.30
2019-05-18T16:23:16.986Z,21.10
2019-05-18T16:25:46.654Z,21.00
2019-05-18T16:28:15.938Z,20.90
2019-05-18T16:30:45.165Z,20.80
2019-05-18T16:33:14.422Z,20.80
2019-05-18T16:35:43.782Z,20.60
2019-05-18T16:38:13.233Z,20.50
2019-05-18T16:40:42.453Z,20.20
2019-05-18T16:43:11.711Z,20.10
2019-05-18T16:45:41.000Z,20.00
2019-05-18T16:48:10.353Z,20.00
2019-05-18T16:50:39.533Z,19.90
2019-05-18T16:53:08.817Z,19.90
2019-05-18T16:55:38.009Z,19.80
2019-05-18T16:58:07.520Z,19.70
2019-05-18T17:00:37.237Z,19.60
2019-05-18T17:03:06.476Z,19.50
2019-05-18T17:05:35.736Z,19.40
2019-05-18T17:08:04.990Z,19.40
2019-05-18T17:10:34.286Z,19.30
2019-05-18T17:13:03.571Z,19.20
2019-05-18T17:15:32.801Z,19.20
2019-05-18T17:18:01.989Z,19.20
2019-05-18T17:20:31.276Z,19.00
2019-05-18T17:23:00.562Z,18.90
2019-05-18T17:25:29.837Z,18.90
2019-05-18T17:27:59.159Z,18.90
2019-05-18T17:30:28.545Z,19.00
2019-05-18T17:32:57.876Z,19.10
2019-05-18T17:35:27.069Z,19.00
2019-05-18T17:37:56.645Z,19.00
2019-05-18T17:40:25.834Z,19.00
2019-05-18T17:42:55.028Z,19.10
2019-05-18T17:45:24.575Z,19.00
2019-05-18T17:47:53.906Z,19.00
2019-05-18T17:50:23.177Z,19.00
2019-05-18T17:52:52.415Z,18.90
2019-05-18T17:55:21.601Z,18.90
2019-05-18T17:57:50.793Z,18.80
2019-05-18T18:00:20.580Z,18.90
2019-05-18T18:02:49.763Z,18.90
2019-05-18T18:05:18.966Z,18.90
2019-05-18T18:07:48.231Z,18.80
2019-05-18T18:10:18.176Z,18.80
2019-05-18T18:12:47.449Z,18.90
2019-05-18T18:15:17.305Z,18.80
2019-05-18T18:17:46.701Z,18.90
2019-05-18T18:20:16.582Z,18.90
2019-05-18T18:22:46.074Z,18.90
2019-05-18T18:25:15.860Z,18.90
2019-05-18T18:27:45.094Z,18.90
2019-05-18T18:30:15.447Z,18.90
2019-05-18T18:32:44.712Z,18.80
2019-05-18T18:35:14.228Z,18.70
2019-05-18T18:37:43.598Z,18.70
2019-05-18T18:40:13.475Z,18.70
2019-05-18T18:42:42.735Z,18.80
2019-05-18T18:45:12.052Z,18.70
2019-05-18T18:47:41.729Z,18.60
2019-05-18T18:50:11.698Z,18.50
2019-05-18T18:52:40.996Z,18.50
2019-05-18T18:55:10.179Z,18.50
2019-05-18T18:57:41.840Z,18.50
2019-05-18T19:00:11.305Z,18.40
2019-05-18T19:02:40.701Z,18.40
2019-05-18T19:05:10.121Z,18.30
2019-05-18T19:07:39.387Z,18.20
2019-05-18T19:10:09.318Z,18.20
2019-05-18T19:12:38.654Z,18.10
2019-05-18T19:15:09.329Z,18.00
2019-05-18T19:17:38.580Z,18.10
2019-05-18T19:20:08.478Z,18.10
2019-05-18T19:22:37.749Z,18.10
2019-05-18T19:25:07.608Z,18.10
2019-05-18T19:27:36.878Z,18.00
2019-05-18T19:30:09.735Z,17.90
2019-05-18T19:32:37.723Z,17.90
2019-05-18T19:35:07.715Z,17.80
2019-05-18T19:37:37.168Z,17.90
2019-05-18T19:40:07.368Z,17.90
2019-05-18T19:42:36.702Z,17.90
2019-05-18T19:45:06.529Z,17.80
2019-05-18T19:47:35.786Z,17.80
2019-05-18T19:50:05.414Z,17.80
2019-05-18T19:52:34.655Z,17.70
2019-05-18T19:55:04.409Z,17.80
2019-05-18T19:57:33.740Z,17.70
2019-05-18T20:00:03.172Z,17.60
2019-05-18T20:02:32.488Z,17.70
2019-05-18T20:05:07.894Z,17.60
2019-05-18T20:07:32.631Z,17.50
2019-05-18T20:10:01.882Z,17.50
2019-05-18T20:12:31.098Z,17.40
2019-05-18T20:15:00.569Z,17.30
2019-05-18T20:17:29.758Z,17.30
2019-05-18T20:19:59.123Z,17.30
2019-05-18T20:22:28.607Z,17.30
2019-05-18T20:24:58.045Z,17.20
2019-05-18T20:27:27.343Z,17.20
2019-05-18T20:29:56.640Z,17.20
2019-05-18T20:32:25.841Z,17.10
2019-05-18T20:38:23.109Z,17.00
2019-05-18T20:40:52.408Z,17.10
2019-05-18T20:43:21.741Z,17.10
2019-05-18T20:45:51.005Z,17.10
2019-05-18T20:48:20.762Z,17.10
2019-05-18T20:50:50.032Z,17.10
2019-05-18T20:53:19.355Z,17.10
2019-05-18T20:55:48.680Z,17.10
2019-05-18T20:58:18.047Z,17.20
2019-05-18T21:00:47.401Z,17.10
2019-05-18T21:03:16.717Z,17.00
2019-05-18T21:05:46.064Z,17.00
2019-05-18T21:08:15.416Z,17.00
2019-05-18T21:10:45.421Z,17.00
2019-05-18T21:13:14.707Z,16.90
2019-05-18T21:15:43.884Z,16.90
2019-05-18T21:18:13.141Z,16.90
2019-05-18T21:20:42.405Z,16.90
2019-05-18T21:23:11.743Z,16.90
2019-05-18T21:25:41.776Z,16.90
2019-05-18T21:28:11.150Z,16.90
2019-05-18T21:30:40.502Z,16.80
2019-05-18T21:33:09.862Z,16.80
2019-05-18T21:35:39.211Z,16.70
2019-05-18T21:38:08.490Z,16.70
2019-05-18T21:40:37.953Z,16.60
2019-05-18T21:43:07.134Z,16.50
2019-05-18T21:45:36.318Z,16.50
2019-05-18T21:48:05.745Z,16.50
2019-05-18T21:50:35.079Z,16.40
2019-05-18T21:53:04.415Z,16.40
2019-05-18T21:55:33.670Z,16.30
2019-05-18T21:58:02.929Z,16.20
2019-05-18T22:00:32.633Z,16.20
2019-05-18T22:03:02.003Z,16.20
2019-05-18T22:05:31.408Z,16.10
2019-05-18T22:08:00.939Z,16.00
2019-05-18T22:10:30.238Z,16.00
2019-05-18T22:12:59.492Z,15.90
2019-05-18T22:15:28.760Z,15.90
2019-05-18T22:18:04.336Z,15.90
2019-05-18T22:20:34.760Z,15.90
2019-05-18T22:23:04.097Z,15.90
2019-05-18T22:25:33.848Z,15.80
2019-05-18T22:28:03.172Z,15.80
2019-05-18T22:30:32.466Z,15.90
2019-05-18T22:33:01.778Z,15.90
2019-05-18T22:35:31.062Z,15.80
2019-05-18T22:38:00.315Z,15.80
2019-05-18T22:40:29.618Z,15.80
2019-05-18T22:42:58.821Z,15.80
2019-05-18T22:45:28.099Z,15.80
2019-05-18T22:47:57.386Z,15.70
2019-05-18T22:50:26.760Z,15.70
2019-05-18T22:52:56.026Z,15.70
2019-05-18T22:55:25.415Z,15.60
2019-05-18T22:57:54.684Z,15.60
2019-05-18T23:00:24.040Z,15.50
2019-05-18T23:02:53.363Z,15.50
2019-05-18T23:05:22.562Z,15.60
2019-05-18T23:07:51.830Z,15.50
2019-05-18T23:10:21.046Z,15.50
2019-05-18T23:12:50.311Z,15.40
2019-05-18T23:15:19.968Z,15.40
2019-05-18T23:17:49.275Z,15.40
2019-05-18T23:20:18.559Z,15.40
2019-05-18T23:22:47.835Z,15.40
2019-05-18T23:25:17.441Z,15.40
2019-05-18T23:27:46.775Z,15.30
2019-05-18T23:30:16.287Z,15.30
2019-05-18T23:32:45.578Z,15.30
2019-05-18T23:35:14.842Z,15.30
2019-05-18T23:37:44.113Z,15.20
2019-05-18T23:40:13.884Z,15.20
2019-05-18T23:42:43.082Z,15.20
2019-05-18T23:45:12.440Z,15.20
2019-05-18T23:47:41.760Z,15.30
2019-05-18T23:50:12.278Z,15.20
2019-05-18T23:52:41.629Z,15.20
2019-05-18T23:55:11.605Z,15.20
2019-05-18T23:57:40.779Z,15.20
